Time;durP1;ratioP1;P1;durP2;ratioP2;P2;SDS_P1;SDS_P2;PMS_P1;PMS_P2;Temp;Humidity;BMP_temperature;BMP_pressure;BME280_temperature;BME280_humidity;BME280_pressure;Samples;Min_cycle;Max_cycle;Signal;HPM_P1;HPM_P2
2022/02/16 00:00:08;;;;;;;1.50;1.20;;;;;;;5.39;71.78;98421.81;5021262;27;104181;-73
2022/02/16 00:02:40;;;;;;;4.13;1.20;;;;;;;5.45;71.71;98423.25;5022407;27;103113;-73
2022/02/16 00:05:11;;;;;;;1.80;1.30;;;;;;;5.46;71.71;98417.06;5023088;27;102590;-73
2022/02/16 00:07:40;;;;;;;4.17;1.47;;;;;;;5.38;71.70;98414.03;5020073;27;103521;-73
2022/02/16 00:10:09;;;;;;;3.17;1.30;;;;;;;5.40;71.78;98413.03;5023780;27;103749;-73
2022/02/16 00:12:38;;;;;;;1.33;1.10;;;;;;;5.39;71.68;98413.13;5020548;27;103137;-73
2022/02/16 00:15:07;;;;;;;1.97;1.23;;;;;;;5.37;71.46;98396.63;5019375;27;102597;-73
2022/02/16 00:17:36;;;;;;;2.43;1.43;;;;;;;5.34;72.06;98408.13;5022389;27;103441;-73
2022/02/16 00:20:06;;;;;;;2.70;1.30;;;;;;;5.43;72.05;98417.25;5016799;27;103353;-73
2022/02/16 00:22:35;;;;;;;1.03;0.90;;;;;;;5.42;71.44;98413.78;5022731;27;103195;-73
2022/02/16 00:25:03;;;;;;;1.60;1.10;;;;;;;5.42;71.69;98405.91;5022103;27;102700;-74
2022/02/16 00:27:31;;;;;;;2.70;0.90;;;;;;;5.49;71.79;98406.44;5019529;27;102638;-73
2022/02/16 00:29:59;;;;;;;4.33;1.20;;;;;;;5.47;71.49;98403.06;5024337;27;103794;-73
2022/02/16 00:32:28;;;;;;;2.17;1.13;;;;;;;5.53;71.63;98397.47;5023150;27;103169;-73
2022/02/16 00:34:56;;;;;;;3.33;1.13;;;;;;;5.56;71.66;98403.38;5020662;27;103215;-74
2022/02/16 00:37:25;;;;;;;3.30;1.30;;;;;;;5.48;71.72;98400.34;5021060;27;102839;-73
2022/02/16 00:39:53;;;;;;;3.23;1.23;;;;;;;5.62;71.78;98404.78;5016228;27;104168;-73
2022/02/16 00:42:23;;;;;;;2.87;1.00;;;;;;;5.66;71.93;98408.94;5020216;27;103218;-66
2022/02/16 00:44:51;;;;;;;2.03;0.93;;;;;;;5.67;71.79;98410.63;5021614;27;102589;-73
2022/02/16 00:47:19;;;;;;;1.93;1.00;;;;;;;5.74;71.71;98401.47;5019553;27;102610;-74
2022/02/16 00:49:48;;;;;;;2.97;1.07;;;;;;;5.73;71.65;98400.63;5020336;27;103901;-73
2022/02/16 00:52:20;;;;;;;2.10;1.00;;;;;;;5.70;71.80;98394.72;5016554;27;105123;-73
2022/02/16 00:54:50;;;;;;;3.33;1.20;;;;;;;5.74;72.08;98385.75;5016190;27;102982;-73
2022/02/16 00:57:19;;;;;;;3.40;1.03;;;;;;;5.71;71.84;98396.41;5024389;27;102780;-72
2022/02/16 00:59:49;;;;;;;4.47;1.20;;;;;;;5.76;71.80;98384.72;5023124;27;103750;-73
2022/02/16 01:02:18;;;;;;;1.53;1.10;;;;;;;5.79;71.68;98375.84;5022862;27;103191;-73
2022/02/16 01:04:47;;;;;;;2.17;1.00;;;;;;;5.78;71.89;98375.00;5018359;27;102583;-73
2022/02/16 01:07:16;;;;;;;2.03;0.90;;;;;;;5.83;71.83;98364.25;5021375;27;103760;-73
2022/02/16 01:09:44;;;;;;;1.30;0.83;;;;;;;5.84;71.82;98355.44;5018639;27;103969;-73
2022/02/16 01:12:13;;;;;;;2.97;0.90;;;;;;;5.87;72.02;98354.47;5017521;27;102684;-73
2022/02/16 01:14:42;;;;;;;1.87;0.93;;;;;;;5.93;71.74;98364.56;5010474;27;102717;-73
2022/02/16 01:17:16;;;;;;;4.07;1.10;;;;;;;5.96;71.78;98365.25;5013813;27;102768;-73
2022/02/16 01:19:57;;;;;;;4.70;1.10;;;;;;;5.95;71.71;98357.47;5014730;27;105991;-73
2022/02/16 01:22:30;;;;;;;3.13;1.20;;;;;;;6.00;71.44;98356.28;5014065;27;104266;-73
2022/02/16 01:24:59;;;;;;;2.57;1.10;;;;;;;6.01;71.88;98351.84;5011243;27;102629;-73
2022/02/16 01:27:29;;;;;;;2.27;1.03;;;;;;;6.08;71.67;98350.56;5013046;27;104159;-67
2022/02/16 01:29:59;;;;;;;1.90;0.90;;;;;;;6.04;71.66;98342.03;4998889;27;105089;-66
2022/02/16 01:32:42;;;;;;;4.00;1.10;;;;;;;6.08;71.75;98337.44;5010731;27;103129;-67
2022/02/16 01:35:12;;;;;;;3.60;1.20;;;;;;;6.07;71.96;98331.34;5012201;27;102756;-67
2022/02/16 01:37:40;;;;;;;2.23;1.00;;;;;;;6.10;72.23;98331.19;5012171;27;103035;-72
2022/02/16 01:40:13;;;;;;;2.63;1.00;;;;;;;6.14;72.15;98332.69;5010873;27;104291;-67
2022/02/16 01:42:46;;;;;;;2.80;1.20;;;;;;;6.22;71.97;98325.19;5011653;27;104202;-67
2022/02/16 01:45:30;;;;;;;1.50;1.00;;;;;;;6.24;72.10;98328.56;5014820;27;103746;-67
2022/02/16 01:47:59;;;;;;;2.80;0.70;;;;;;;6.30;72.05;98322.94;5014704;27;102803;-66
2022/02/16 01:50:27;;;;;;;1.80;0.90;;;;;;;6.22;72.40;98325.19;5007555;27;103185;-66
2022/02/16 01:52:56;;;;;;;3.00;0.80;;;;;;;6.26;72.35;98316.19;5012459;27;103392;-67
2022/02/16 01:55:30;;;;;;;2.73;1.00;;;;;;;6.29;72.13;98316.00;5012301;27;102843;-67
2022/02/16 01:58:01;;;;;;;3.77;1.10;;;;;;;6.34;72.35;98308.69;5014547;27;102789;-66
2022/02/16 02:00:48;;;;;;;2.47;1.00;;;;;;;6.34;72.20;98300.81;5012072;27;104256;-66
2022/02/16 02:03:19;;;;;;;1.63;0.70;;;;;;;6.31;72.52;98292.31;5010970;27;103333;-67
2022/02/16 02:05:52;;;;;;;1.50;0.80;;;;;;;6.36;72.47;98296.34;5015508;27;102827;-66
2022/02/16 02:08:24;;;;;;;2.20;0.97;;;;;;;6.34;72.55;98282.47;5013881;27;102828;-67
2022/02/16 02:10:56;;;;;;;2.60;1.10;;;;;;;6.40;72.47;98282.09;5011626;27;103235;-66
2022/02/16 02:13:27;;;;;;;3.00;0.77;;;;;;;6.43;72.99;98277.59;5015601;27;104326;-66
2022/02/16 02:16:03;;;;;;;1.23;0.63;;;;;;;6.45;72.76;98288.84;5022044;27;102800;-67
2022/02/16 02:18:37;;;;;;;2.83;1.00;;;;;;;6.45;73.05;98275.72;5016664;27;102614;-67
2022/02/16 02:21:06;;;;;;;1.90;0.90;;;;;;;6.39;73.06;98274.31;5012871;27;105471;-67
2022/02/16 02:23:35;;;;;;;1.90;0.90;;;;;;;6.43;73.50;98270.56;5025156;27;106034;-66
2022/02/16 02:26:04;;;;;;;3.07;0.90;;;;;;;6.48;73.25;98272.91;5013408;27;102668;-67
2022/02/16 02:28:32;;;;;;;1.83;0.97;;;;;;;6.40;73.63;98258.47;5016343;27;102727;-67
2022/02/16 02:31:00;;;;;;;2.03;0.80;;;;;;;6.48;73.27;98259.78;5013858;27;104255;-67
2022/02/16 02:33:29;;;;;;;3.17;1.03;;;;;;;6.40;73.48;98250.59;5012975;27;103248;-67
2022/02/16 02:35:58;;;;;;;3.70;0.77;;;;;;;6.40;73.28;98258.47;5013998;27;103698;-67
2022/02/16 02:38:28;;;;;;;1.10;0.70;;;;;;;6.41;73.27;98260.16;5015738;27;102772;-73
2022/02/16 02:40:58;;;;;;;2.27;1.47;;;;;;;6.40;73.29;98245.34;5015162;27;103241;-73
2022/02/16 02:43:31;;;;;;;2.60;1.00;;;;;;;6.34;72.97;98232.59;5012852;27;103996;-73
2022/02/16 02:46:03;;;;;;;1.00;0.70;;;;;;;6.38;73.05;98249.00;5013581;27;102751;-72
2022/02/16 02:48:39;;;;;;;2.43;0.83;;;;;;;6.32;72.97;98237.13;5014074;27;102746;-73
2022/02/16 02:51:08;;;;;;;1.53;0.97;;;;;;;6.36;73.20;98233.38;5014265;27;104032;-73
2022/02/16 02:53:40;;;;;;;4.37;0.90;;;;;;;6.33;73.31;98223.06;5014985;27;103479;-73
2022/02/16 02:56:09;;;;;;;1.87;1.00;;;;;;;6.37;73.32;98221.91;5012926;27;102770;-72
2022/02/16 02:58:41;;;;;;;3.07;0.70;;;;;;;6.34;73.36;98205.56;5014812;27;103055;-73
2022/02/16 03:01:11;;;;;;;2.20;0.80;;;;;;;6.35;73.59;98208.06;5007237;27;104300;-73
2022/02/16 03:03:47;;;;;;;1.33;0.80;;;;;;;6.29;73.62;98195.31;5013480;27;106180;-72
2022/02/16 03:06:16;;;;;;;0.93;0.60;;;;;;;6.33;73.87;98201.22;5011850;27;102765;-73
2022/02/16 03:08:46;;;;;;;2.17;1.07;;;;;;;6.37;73.93;98198.31;5028247;27;102746;-73
2022/02/16 03:11:19;;;;;;;1.50;0.83;;;;;;;6.40;74.04;98189.41;5011191;27;105041;-73
2022/02/16 03:13:49;;;;;;;2.90;0.70;;;;;;;6.33;74.31;98183.72;5014586;27;103178;-73
2022/02/16 03:16:28;;;;;;;1.13;0.60;;;;;;;6.35;74.08;98181.81;5011806;27;102673;-73
2022/02/16 03:18:56;;;;;;;0.73;0.60;;;;;;;6.25;74.38;98167.63;5012771;27;104083;-73
2022/02/16 03:21:24;;;;;;;2.77;0.80;;;;;;;6.28;74.57;98177.91;5003540;27;104220;-66
2022/02/16 03:23:56;;;;;;;1.33;0.63;;;;;;;6.34;74.76;98176.69;5013057;27;105850;-73
2022/02/16 03:26:24;;;;;;;2.80;1.07;;;;;;;6.29;74.66;98171.72;5016404;27;102806;-73
2022/02/16 03:28:53;;;;;;;1.10;0.77;;;;;;;6.29;74.66;98176.97;5019541;27;102767;-73
2022/02/16 03:31:24;;;;;;;2.03;0.70;;;;;;;6.34;74.91;98172.25;5019034;27;105159;-73
2022/02/16 03:34:03;;;;;;;3.50;0.83;;;;;;;6.31;74.68;98172.47;5023532;27;103318;-72
2022/02/16 03:36:35;;;;;;;2.63;0.80;;;;;;;6.29;74.63;98163.00;5019745;27;102678;-73
2022/02/16 03:39:04;;;;;;;2.20;0.77;;;;;;;6.23;74.68;98161.59;5022062;27;102657;-72
2022/02/16 03:41:32;;;;;;;1.50;0.70;;;;;;;6.29;74.56;98155.97;5012636;27;103265;-73
2022/02/16 03:44:00;;;;;;;1.53;0.70;;;;;;;6.27;74.65;98147.38;5014536;27;104086;-73
2022/02/16 03:46:36;;;;;;;2.50;1.10;;;;;;;6.27;74.39;98146.53;5013059;27;103063;-73
2022/02/16 03:49:04;;;;;;;1.60;0.80;;;;;;;6.32;74.18;98142.66;5013634;27;102821;-73
2022/02/16 03:51:33;;;;;;;1.27;0.60;;;;;;;6.33;74.19;98139.13;5011691;27;104059;-73
2022/02/16 03:54:02;;;;;;;2.30;0.90;;;;;;;6.28;73.97;98138.56;5013002;27;105469;-66
2022/02/16 03:56:31;;;;;;;3.03;0.80;;;;;;;6.28;74.03;98142.97;5010632;27;102719;-66
2022/02/16 03:58:59;;;;;;;1.87;0.83;;;;;;;6.31;73.75;98135.75;5013209;27;103881;-66
2022/02/16 04:01:28;;;;;;;1.97;0.83;;;;;;;6.27;73.95;98134.25;5010462;27;105374;-66
2022/02/16 04:03:57;;;;;;;3.03;0.80;;;;;;;6.30;73.68;98134.06;5006401;27;105973;-66
2022/02/16 04:06:27;;;;;;;1.17;0.70;;;;;;;6.31;73.40;98132.28;5012095;27;102767;-67
2022/02/16 04:08:56;;;;;;;1.37;0.70;;;;;;;6.32;73.43;98126.94;5012324;27;102804;-73
2022/02/16 04:11:26;;;;;;;1.20;0.80;;;;;;;6.33;73.77;98123.38;5010193;27;106466;-73
2022/02/16 04:13:58;;;;;;;1.13;0.90;;;;;;;6.34;73.69;98122.41;5004672;27;103185;-73
2022/02/16 04:16:26;;;;;;;1.27;0.70;;;;;;;6.31;73.73;98109.53;5012483;27;103063;-73
2022/02/16 04:18:54;;;;;;;1.23;0.70;;;;;;;6.39;73.37;98111.63;5029265;27;103980;-73
2022/02/16 04:21:23;;;;;;;1.13;0.63;;;;;;;6.37;73.18;98106.47;5011366;27;104423;-73
2022/02/16 04:23:52;;;;;;;0.93;0.60;;;;;;;6.40;73.30;98097.56;5012702;27;103907;-73
2022/02/16 04:26:20;;;;;;;1.60;0.80;;;;;;;6.38;73.24;98108.16;5011879;27;102775;-73
2022/02/16 04:28:53;;;;;;;1.23;0.80;;;;;;;6.43;73.37;98106.09;5013488;27;104109;-73
2022/02/16 04:31:26;;;;;;;2.40;0.63;;;;;;;6.43;73.46;98103.47;5013673;27;103160;-73
2022/02/16 04:33:56;;;;;;;2.97;0.70;;;;;;;6.43;73.48;98107.03;5013321;27;106087;-73
2022/02/16 04:36:27;;;;;;;0.97;0.60;;;;;;;6.43;73.31;98100.00;5011400;27;103037;-72
2022/02/16 04:39:00;;;;;;;3.43;0.80;;;;;;;6.43;73.45;98103.47;5015329;27;103720;-66
2022/02/16 04:41:31;;;;;;;1.30;0.77;;;;;;;6.50;73.19;98106.53;5012405;27;104095;-67
2022/02/16 04:44:03;;;;;;;1.17;0.50;;;;;;;6.46;73.55;98101.59;5011888;27;104896;-66
2022/02/16 04:46:33;;;;;;;1.47;0.63;;;;;;;6.53;73.46;98087.13;5009004;27;102699;-66
2022/02/16 04:49:04;;;;;;;1.80;0.60;;;;;;;6.51;73.59;98083.75;5011916;27;102941;-67
2022/02/16 04:51:32;;;;;;;1.63;0.63;;;;;;;6.54;73.56;98078.31;5010964;27;105400;-67
2022/02/16 04:54:03;;;;;;;0.77;0.60;;;;;;;6.60;73.45;98077.88;5007046;27;105226;-67
2022/02/16 04:56:34;;;;;;;0.90;0.50;;;;;;;6.58;74.00;98071.91;5012141;27;102799;-69
2022/02/16 04:59:03;;;;;;;3.57;0.70;;;;;;;6.58;73.70;98070.13;5008843;27;104028;-68
2022/02/16 05:01:32;;;;;;;1.50;0.53;;;;;;;6.53;73.87;98055.63;5010147;27;104453;-68
2022/02/16 05:04:03;;;;;;;0.80;0.60;;;;;;;6.53;73.86;98061.72;5010793;27;103614;-73
2022/02/16 05:06:37;;;;;;;1.47;0.60;;;;;;;6.50;74.00;98067.19;5013015;27;102760;-74
2022/02/16 05:09:07;;;;;;;1.40;0.80;;;;;;;6.53;74.12;98055.63;5010953;27;104058;-73
2022/02/16 05:11:38;;;;;;;1.57;0.50;;;;;;;6.56;73.97;98050.19;5012050;27;103236;-73
2022/02/16 05:14:09;;;;;;;1.43;0.70;;;;;;;6.56;74.16;98052.81;5014998;27;105485;-73
2022/02/16 05:16:42;;;;;;;1.43;0.60;;;;;;;6.63;73.81;98059.31;5015311;27;102728;-73
2022/02/16 05:19:13;;;;;;;0.77;0.57;;;;;;;6.49;74.35;98052.38;5016047;27;103825;-73
2022/02/16 05:21:43;;;;;;;0.80;0.60;;;;;;;6.54;74.59;98052.06;5018679;27;104219;-73
2022/02/16 05:24:16;;;;;;;1.10;0.50;;;;;;;6.60;74.48;98056.91;5015875;27;104979;-73
2022/02/16 05:26:47;;;;;;;1.63;0.73;;;;;;;6.57;74.70;98051.88;5016601;27;102843;-73
2022/02/16 05:29:15;;;;;;;0.97;0.60;;;;;;;6.57;75.01;98044.00;5015547;27;102797;-75
2022/02/16 05:31:53;;;;;;;2.60;0.40;;;;;;;6.58;75.02;98037.78;5016032;27;103959;-71
2022/02/16 05:34:22;;;;;;;1.47;0.77;;;;;;;6.56;75.26;98037.91;5013788;27;103292;-71
2022/02/16 05:36:53;;;;;;;1.13;0.57;;;;;;;6.64;75.54;98032.97;5015793;27;102701;-71
2022/02/16 05:39:24;;;;;;;2.27;0.63;;;;;;;6.62;75.20;98020.91;5012492;27;102986;-71
2022/02/16 05:41:53;;;;;;;2.13;0.70;;;;;;;6.58;75.47;98024.66;5010130;27;103266;-74
2022/02/16 05:44:21;;;;;;;2.43;0.70;;;;;;;6.62;75.28;98013.03;5015210;27;104055;-74
2022/02/16 05:46:50;;;;;;;0.70;0.40;;;;;;;6.60;75.22;98015.75;5016471;27;103004;-74
2022/02/16 05:49:19;;;;;;;1.23;0.67;;;;;;;6.59;75.70;98013.25;5015993;27;103997;-74
2022/02/16 05:51:47;;;;;;;0.80;0.50;;;;;;;6.58;75.44;98014.16;5016566;27;104458;-74
2022/02/16 05:54:15;;;;;;;1.20;0.70;;;;;;;6.56;75.49;98013.44;5015136;27;104248;-73
2022/02/16 05:56:43;;;;;;;0.60;0.60;;;;;;;6.66;75.43;98014.50;5013437;27;104611;-74
2022/02/16 05:59:15;;;;;;;0.73;0.60;;;;;;;6.61;75.81;98006.94;5016596;27;104043;-74
2022/02/16 06:01:43;;;;;;;1.27;0.60;;;;;;;6.53;76.14;97993.50;5014763;27;103609;-72
2022/02/16 06:04:15;;;;;;;0.60;0.60;;;;;;;6.61;75.81;97995.59;5005905;27;103213;-72
2022/02/16 06:06:46;;;;;;;0.97;0.60;;;;;;;6.56;76.22;97990.66;5011412;27;102920;-74
2022/02/16 06:09:16;;;;;;;0.77;0.50;;;;;;;6.61;76.30;97990.34;5009416;27;103916;-72
2022/02/16 06:11:44;;;;;;;1.13;0.60;;;;;;;6.59;76.42;97987.84;5009598;27;105832;-74
2022/02/16 06:14:19;;;;;;;1.20;0.60;;;;;;;6.62;76.33;97986.78;5006195;27;105173;-74
2022/02/16 06:16:54;;;;;;;1.20;0.70;;;;;;;6.58;76.67;97994.03;4999933;27;103168;-71
2022/02/16 06:19:22;;;;;;;1.63;0.50;;;;;;;6.58;76.58;97973.03;5016271;27;104133;-71
2022/02/16 06:21:52;;;;;;;1.10;0.70;;;;;;;6.58;76.77;97980.06;5013933;27;103979;-71
2022/02/16 06:24:20;;;;;;;1.27;0.50;;;;;;;6.65;76.60;97984.78;5016968;27;103210;-71
2022/02/16 06:26:49;;;;;;;1.33;0.50;;;;;;;6.68;76.74;97986.38;5012394;27;102677;-72
2022/02/16 06:29:18;;;;;;;1.13;0.60;;;;;;;6.67;76.82;97985.53;5013627;27;102727;-71
2022/02/16 06:32:21;;;;;;;2.30;0.57;;;;;;;6.69;76.89;97988.03;4965259;28;103373;-71
2022/02/16 06:34:51;;;;;;;1.03;0.47;;;;;;;6.68;76.97;97991.63;4998036;27;103213;-72
2022/02/16 06:37:21;;;;;;;0.70;0.57;;;;;;;6.70;76.83;97989.72;5005268;27;102960;-71
2022/02/16 06:39:49;;;;;;;1.83;0.70;;;;;;;6.76;76.79;97978.81;5014884;27;102810;-72
2022/02/16 06:42:19;;;;;;;0.53;0.50;;;;;;;6.74;77.00;97981.53;5037099;27;105176;-72
2022/02/16 06:44:47;;;;;;;3.07;0.80;;;;;;;6.72;77.12;97983.44;5019185;27;103185;-71
2022/02/16 06:47:18;;;;;;;1.33;0.70;;;;;;;6.82;77.14;97983.66;5037257;27;103567;-71
2022/02/16 06:49:46;;;;;;;0.50;0.50;;;;;;;6.86;76.91;97971.97;5001177;27;104186;-71
2022/02/16 06:52:15;;;;;;;0.53;0.50;;;;;;;6.83;77.11;97969.56;5013150;27;104932;-71
2022/02/16 06:54:45;;;;;;;0.50;0.50;;;;;;;6.86;77.11;97969.34;5015990;27;103242;-71
2022/02/16 06:57:15;;;;;;;0.63;0.53;;;;;;;6.85;77.14;97972.91;5015455;27;103770;-71
2022/02/16 07:00:12;;;;;;;0.70;0.40;;;;;;;6.91;77.25;97977.75;5009611;27;104210;-71
2022/02/16 07:02:44;;;;;;;0.40;0.40;;;;;;;6.97;77.12;97970.31;5021643;27;103185;-70
2022/02/16 07:05:16;;;;;;;1.27;0.60;;;;;;;6.98;77.17;97977.25;5022257;27;104239;-71
2022/02/16 07:07:46;;;;;;;1.40;0.70;;;;;;;6.88;77.68;97972.72;5025644;27;102603;-71
2022/02/16 07:10:16;;;;;;;0.60;0.50;;;;;;;6.92;78.27;97963.69;5022758;27;102683;-70
2022/02/16 07:12:46;;;;;;;1.30;0.50;;;;;;;6.94;78.44;97961.78;5022941;27;104593;-71
2022/02/16 07:15:14;;;;;;;0.80;0.50;;;;;;;6.87;78.78;97955.28;5021684;27;103237;-72
2022/02/16 07:17:51;;;;;;;0.50;0.50;;;;;;;6.96;78.71;97959.91;5018530;27;103146;-71
2022/02/16 07:20:26;;;;;;;0.73;0.60;;;;;;;6.94;79.79;97953.91;5021151;27;102771;-72
2022/02/16 07:22:54;;;;;;;1.47;0.57;;;;;;;6.88;80.18;97956.97;5017828;27;105576;-72
2022/02/16 07:25:25;;;;;;;1.17;0.50;;;;;;;6.95;80.36;97955.59;5023273;27;105427;-72
2022/02/16 07:28:17;;;;;;;1.83;0.57;;;;;;;6.90;81.00;97949.84;5018809;27;102531;-72
2022/02/16 07:30:45;;;;;;;0.97;0.60;;;;;;;6.90;81.16;97944.59;5015447;27;102694;-71
2022/02/16 07:33:15;;;;;;;3.37;0.77;;;;;;;6.90;81.72;97955.94;5017758;27;103242;-71
2022/02/16 07:35:44;;;;;;;1.17;0.63;;;;;;;6.93;82.30;97960.13;5019245;27;105130;-71
2022/02/16 07:38:12;;;;;;;1.13;0.70;;;;;;;6.96;82.77;97959.91;5020137;27;102660;-69
2022/02/16 07:40:43;;;;;;;1.47;0.80;;;;;;;6.88;83.15;97942.03;5023480;27;103926;-72
2022/02/16 07:43:13;;;;;;;1.13;0.60;;;;;;;6.83;83.94;97932.81;5007775;27;103606;-72
2022/02/16 07:45:59;;;;;;;0.70;0.57;;;;;;;6.82;83.55;97934.59;5026332;27;103288;-72
2022/02/16 07:48:32;;;;;;;2.47;0.67;;;;;;;6.88;83.54;97928.06;5025072;27;102665;-72
2022/02/16 07:51:10;;;;;;;0.67;0.60;;;;;;;6.91;84.08;97936.59;5021166;27;104066;-72
2022/02/16 07:53:56;;;;;;;0.97;0.67;;;;;;;6.85;84.29;97938.78;5022329;27;103013;-72
2022/02/16 07:56:28;;;;;;;1.23;0.40;;;;;;;6.74;84.79;97933.44;5017133;27;102951;-72
2022/02/16 07:58:56;;;;;;;0.70;0.50;;;;;;;6.81;84.85;97934.72;5020306;27;102656;-71
2022/02/16 08:01:24;;;;;;;1.17;0.60;;;;;;;6.89;84.53;97930.59;5019125;27;103681;-70
2022/02/16 08:03:52;;;;;;;0.90;0.60;;;;;;;6.86;85.64;97927.34;5017214;27;103206;-69
2022/02/16 08:06:20;;;;;;;0.83;0.67;;;;;;;6.92;84.72;97926.94;5020363;27;103327;-69
2022/02/16 08:08:48;;;;;;;0.90;0.60;;;;;;;7.02;84.49;97925.31;5014876;27;103234;-69
2022/02/16 08:11:16;;;;;;;1.93;0.70;;;;;;;6.98;85.01;97923.88;5019745;27;102663;-69
2022/02/16 08:13:49;;;;;;;1.10;0.70;;;;;;;6.92;84.95;97926.94;5017050;27;106805;-72
2022/02/16 08:16:28;;;;;;;1.20;0.57;;;;;;;6.87;84.97;97931.66;5015604;27;103202;-72
2022/02/16 08:19:07;;;;;;;1.07;0.70;;;;;;;6.88;85.51;97925.44;5019888;27;102690;-71
2022/02/16 08:21:36;;;;;;;0.80;0.60;;;;;;;6.85;85.22;97920.41;5022668;27;102671;-69
2022/02/16 08:24:05;;;;;;;3.83;0.90;;;;;;;6.86;85.79;97919.47;5017098;27;103435;-69
2022/02/16 08:26:34;;;;;;;1.30;0.50;;;;;;;6.86;86.18;97916.84;5011411;27;103166;-72
2022/02/16 08:29:04;;;;;;;0.53;0.40;;;;;;;6.87;86.37;97910.66;5020810;27;102650;-72
2022/02/16 08:31:35;;;;;;;0.70;0.50;;;;;;;6.84;86.61;97900.38;5024951;27;102702;-72
2022/02/16 08:34:05;;;;;;;0.67;0.50;;;;;;;6.91;87.01;97909.47;5019784;27;104117;-71
2022/02/16 08:36:48;;;;;;;2.20;0.57;;;;;;;6.98;87.33;97895.00;5014869;27;105508;-74
2022/02/16 08:39:16;;;;;;;0.70;0.60;;;;;;;6.88;87.77;97888.69;5020541;27;103149;-73
2022/02/16 08:41:44;;;;;;;0.50;0.50;;;;;;;6.93;87.82;97876.91;5020883;27;103397;-72
2022/02/16 08:44:14;;;;;;;0.50;0.50;;;;;;;7.03;87.73;97871.88;5021612;27;103959;-72
2022/02/16 08:46:42;;;;;;;0.60;0.50;;;;;;;7.12;87.60;97875.63;5020226;27;103236;-72
2022/02/16 08:49:10;;;;;;;3.03;0.50;;;;;;;6.95;87.97;97879.44;5025233;27;102624;-70
2022/02/16 08:51:40;;;;;;;1.37;0.73;;;;;;;6.91;88.08;97868.31;5016428;27;103776;-70
2022/02/16 08:54:07;;;;;;;1.07;0.50;;;;;;;7.02;88.28;97857.03;5021203;27;103753;-70
2022/02/16 08:56:36;;;;;;;1.67;0.50;;;;;;;6.96;88.60;97865.38;5018704;27;103170;-70
2022/02/16 08:59:04;;;;;;;0.57;0.50;;;;;;;7.00;88.52;97851.06;5021581;27;102623;-70
2022/02/16 09:01:34;;;;;;;0.50;0.50;;;;;;;7.02;89.64;97857.03;5019522;27;104128;-70
2022/02/16 09:04:06;;;;;;;0.97;0.60;;;;;;;7.03;88.87;97866.63;5017458;27;104035;-70
2022/02/16 09:06:35;;;;;;;1.23;0.57;;;;;;;7.09;89.32;97858.31;5019409;27;103184;-70
2022/02/16 09:09:04;;;;;;;0.60;0.53;;;;;;;7.14;89.64;97858.81;5020794;27;102590;-69
2022/02/16 09:11:32;;;;;;;0.60;0.50;;;;;;;7.09;89.59;97839.91;5020249;27;103912;-70
2022/02/16 09:14:03;;;;;;;1.00;0.80;;;;;;;6.99;90.48;97833.63;5019751;27;105237;-72
2022/02/16 09:16:31;;;;;;;2.10;0.60;;;;;;;7.00;91.03;97830.06;5017904;27;103199;-72
2022/02/16 09:19:00;;;;;;;2.00;0.90;;;;;;;7.14;91.08;97832.53;5021164;27;102604;-73
2022/02/16 09:21:31;;;;;;;0.70;0.53;;;;;;;7.19;91.37;97826.94;5021012;27;103806;-73
2022/02/16 09:23:59;;;;;;;2.87;1.07;;;;;;;7.24;90.58;97830.09;5020698;27;103954;-73
2022/02/16 09:26:28;;;;;;;0.90;0.60;;;;;;;7.33;90.52;97837.28;5022584;27;103188;-72
2022/02/16 09:28:56;;;;;;;0.77;0.60;;;;;;;7.36;90.65;97829.19;5019396;27;102940;-72
2022/02/16 09:31:24;;;;;;;0.57;0.57;;;;;;;7.34;91.48;97821.44;5022630;27;102757;-72
2022/02/16 09:33:52;;;;;;;0.67;0.57;;;;;;;7.24;91.10;97828.28;5021174;27;103244;-72
2022/02/16 09:36:22;;;;;;;0.77;0.60;;;;;;;7.43;90.71;97828.66;5023412;27;103257;-72
2022/02/16 09:38:50;;;;;;;2.20;0.50;;;;;;;7.32;90.32;97815.47;5020965;27;102883;-72
2022/02/16 09:41:18;;;;;;;0.70;0.50;;;;;;;7.35;90.90;97820.50;5023316;27;103827;-72
2022/02/16 09:43:47;;;;;;;0.67;0.60;;;;;;;7.35;90.28;97815.22;5020018;27;103997;-72
2022/02/16 09:46:15;;;;;;;0.80;0.80;;;;;;;7.37;90.17;97813.31;5020848;27;103379;-69
2022/02/16 09:48:44;;;;;;;1.73;0.50;;;;;;;7.37;90.27;97818.59;5020917;27;102641;-69
2022/02/16 09:51:14;;;;;;;0.90;0.70;;;;;;;7.38;89.18;97814.97;5017043;27;103943;-69
2022/02/16 09:53:43;;;;;;;1.13;0.63;;;;;;;7.41;89.47;97798.19;5016953;27;103210;-72
2022/02/16 09:56:12;;;;;;;1.70;0.50;;;;;;;7.43;88.95;97796.28;5014946;27;103001;-72
2022/02/16 09:58:40;;;;;;;0.60;0.50;;;;;;;7.44;88.33;97806.66;5013945;27;103804;-72
2022/02/16 10:01:11;;;;;;;1.47;0.60;;;;;;;7.41;87.72;97788.47;5021456;27;104564;-72
2022/02/16 10:03:40;;;;;;;0.40;0.40;;;;;;;7.62;87.61;97801.00;5021442;27;103942;-71
2022/02/16 10:06:38;;;;;;;1.07;0.57;;;;;;;7.65;87.29;97800.75;5024130;27;103177;-72
2022/02/16 10:09:08;;;;;;;0.50;0.50;;;;;;;7.76;86.77;97808.69;5019718;27;102675;-72
2022/02/16 10:11:51;;;;;;;0.40;0.40;;;;;;;7.84;86.43;97807.16;5018621;27;102579;-73
2022/02/16 10:14:20;;;;;;;0.60;0.50;;;;;;;7.83;86.39;97807.28;5021113;27;104278;-71
2022/02/16 10:16:49;;;;;;;1.47;0.50;;;;;;;7.89;86.59;97812.91;5017509;27;103225;-73
2022/02/16 10:19:19;;;;;;;0.70;0.60;;;;;;;7.96;85.70;97813.28;5024811;27;102755;-73
2022/02/16 10:22:05;;;;;;;1.07;0.50;;;;;;;8.06;85.65;97806.38;5020184;27;103844;-73
2022/02/16 10:24:36;;;;;;;1.23;0.70;;;;;;;8.01;86.21;97819.03;5022663;27;103947;-73
2022/02/16 10:27:05;;;;;;;1.00;0.40;;;;;;;7.99;85.47;97813.91;5023708;27;103217;-73
2022/02/16 10:29:35;;;;;;;0.63;0.47;;;;;;;8.01;85.58;97819.03;5021262;27;102567;-73
2022/02/16 10:32:05;;;;;;;0.77;0.60;;;;;;;7.97;85.89;97817.63;5023662;27;103919;-73
2022/02/16 10:34:52;;;;;;;1.10;0.63;;;;;;;7.95;85.47;97806.34;5020622;27;103383;-73
2022/02/16 10:37:22;;;;;;;0.80;0.60;;;;;;;8.08;85.63;97793.97;5025105;27;103234;-73
2022/02/16 10:40:11;;;;;;;1.73;0.60;;;;;;;8.14;84.86;97796.09;5020611;27;102598;-73
2022/02/16 10:42:41;;;;;;;0.60;0.60;;;;;;;8.33;84.88;97791.16;5023226;27;103024;-73
2022/02/16 10:45:11;;;;;;;0.40;0.40;;;;;;;8.35;84.59;97786.59;5020886;27;103661;-73
2022/02/16 10:48:02;;;;;;;1.57;0.60;;;;;;;8.42;84.86;97776.44;5023811;27;104236;-73
2022/02/16 10:50:31;;;;;;;2.17;0.60;;;;;;;8.50;84.54;97779.31;5021857;27;102582;-70
2022/02/16 10:53:04;;;;;;;0.80;0.60;;;;;;;8.56;83.80;97747.25;5027041;27;103844;-70
2022/02/16 10:55:45;;;;;;;0.60;0.53;;;;;;;8.59;83.95;97753.09;5022958;27;104444;-70
2022/02/16 10:58:17;;;;;;;0.50;0.40;;;;;;;8.68;83.52;97740.97;5021105;27;103178;-71
2022/02/16 11:00:46;;;;;;;0.87;0.40;;;;;;;8.85;83.52;97744.91;5021585;27;102628;-71
2022/02/16 11:03:26;;;;;;;0.50;0.40;;;;;;;8.98;83.08;97745.59;5020301;27;103745;-70
2022/02/16 11:05:56;;;;;;;0.60;0.60;;;;;;;9.01;83.11;97737.47;5019776;27;104124;-71
2022/02/16 11:08:26;;;;;;;1.40;0.50;;;;;;;9.05;83.16;97744.13;5021403;27;104200;-70
2022/02/16 11:11:17;;;;;;;0.40;0.40;;;;;;;9.16;82.40;97730.94;5019358;27;102645;-70
2022/02/16 11:13:54;;;;;;;0.43;0.43;;;;;;;9.31;82.32;97734.94;5020929;27;102740;-70
2022/02/16 11:16:22;;;;;;;0.30;0.30;;;;;;;9.37;82.17;97734.47;5020026;27;103747;-70
2022/02/16 11:18:54;;;;;;;0.50;0.40;;;;;;;9.32;81.91;97720.78;5021168;27;104286;-70
2022/02/16 11:21:23;;;;;;;2.07;0.70;;;;;;;9.41;82.14;97729.75;5022619;27;102583;-73
2022/02/16 11:23:53;;;;;;;0.67;0.60;;;;;;;9.45;82.14;97721.47;5023338;27;102693;-73
2022/02/16 11:26:35;;;;;;;0.60;0.50;;;;;;;9.54;81.54;97715.44;5022463;27;103962;-73
2022/02/16 11:29:29;;;;;;;1.30;0.50;;;;;;;9.61;81.52;97718.38;5021369;27;103197;-74
2022/02/16 11:32:21;;;;;;;0.57;0.57;;;;;;;9.75;81.34;97712.78;5016178;27;102571;-73
2022/02/16 11:35:18;;;;;;;1.07;0.40;;;;;;;9.91;80.77;97714.00;5021481;27;102689;-73
2022/02/16 11:37:49;;;;;;;0.43;0.40;;;;;;;10.01;80.82;97714.06;5020494;27;103370;-73
2022/02/16 11:40:19;;;;;;;1.20;0.50;;;;;;;10.04;80.64;97710.31;5020425;27;104371;-70
2022/02/16 11:42:56;;;;;;;0.60;0.50;;;;;;;10.09;80.39;97705.47;5022795;27;102594;-70
2022/02/16 11:45:50;;;;;;;2.30;0.90;;;;;;;10.06;80.58;97701.31;5022826;27;102734;-70
2022/02/16 11:48:50;;;;;;;0.83;0.57;;;;;;;10.23;80.22;97707.81;5020624;27;103770;-70
2022/02/16 11:51:38;;;;;;;0.60;0.40;;;;;;;10.20;80.29;97700.16;4987445;27;103175;-71
2022/02/16 11:54:52;;;;;;;1.17;0.60;;;;;;;10.22;80.53;97692.91;5021204;27;102640;-70